Time;durP1;ratioP1;P1;durP2;ratioP2;P2;SDS_P1;SDS_P2;PMS_P1;PMS_P2;Temp;Humidity;BMP_temperature;BMP_pressure;BME280_temperature;BME280_humidity;BME280_pressure;Samples;Min_cycle;Max_cycle;Signal;HPM_P1;HPM_P2
2022/03/10 00:00:23;;;;;;;20.98;10.25;;;;;;;9.17;32.64;100662.47;4905329;29;20522;-89
2022/03/10 00:02:49;;;;;;;15.10;8.63;;;;;;;8.92;32.88;100668.91;4906946;29;20486;-88
2022/03/10 00:05:15;;;;;;;18.17;9.68;;;;;;;8.99;32.80;100666.91;4905336;29;20317;-86
2022/03/10 00:07:41;;;;;;;19.10;9.70;;;;;;;9.13;32.35;100672.19;4906561;29;20479;-88
2022/03/10 00:10:07;;;;;;;23.00;10.52;;;;;;;9.27;32.96;100666.53;4905266;29;20058;-88
2022/03/10 00:12:33;;;;;;;19.73;9.60;;;;;;;9.15;32.83;100675.50;4906294;29;20068;-86
2022/03/10 00:14:58;;;;;;;16.10;10.25;;;;;;;8.99;32.77;100664.19;4905300;29;20667;-87
2022/03/10 00:17:24;;;;;;;16.67;8.48;;;;;;;9.01;32.70;100671.31;4906506;29;20115;-88
2022/03/10 00:19:49;;;;;;;20.25;11.23;;;;;;;8.96;32.78;100667.41;4905058;29;20063;-88
2022/03/10 00:22:15;;;;;;;20.17;9.38;;;;;;;8.94;32.83;100663.25;4905060;29;20408;-87
2022/03/10 00:24:40;;;;;;;18.58;10.15;;;;;;;8.84;32.84;100671.97;4906129;29;20531;-87
2022/03/10 00:27:05;;;;;;;16.80;9.45;;;;;;;8.91;33.09;100664.53;4905392;29;20503;-87
2022/03/10 00:29:31;;;;;;;25.88;11.77;;;;;;;8.87;33.32;100663.31;4905501;29;20037;-87
2022/03/10 00:31:56;;;;;;;20.33;11.73;;;;;;;8.89;32.68;100665.84;4904947;29;20063;-85
2022/03/10 00:34:21;;;;;;;27.27;13.50;;;;;;;8.84;33.30;100663.81;4904709;29;20451;-88
2022/03/10 00:36:47;;;;;;;22.40;12.30;;;;;;;8.92;32.94;100668.91;4890367;29;20083;-87
2022/03/10 00:39:12;;;;;;;19.00;11.43;;;;;;;8.98;33.14;100668.00;4909884;29;20375;-87
2022/03/10 00:41:37;;;;;;;22.48;10.73;;;;;;;8.93;33.33;100672.47;4910394;29;20694;-87
2022/03/10 00:44:03;;;;;;;15.30;8.97;;;;;;;8.89;33.19;100682.16;4909703;29;20043;-86
2022/03/10 00:46:28;;;;;;;15.40;8.20;;;;;;;8.84;33.44;100682.84;4908747;29;20310;-86
2022/03/10 00:48:53;;;;;;;25.43;12.27;;;;;;;8.89;33.35;100688.41;4909448;29;20723;-87
2022/03/10 00:51:18;;;;;;;21.00;11.40;;;;;;;8.74;33.87;100691.53;4908199;29;20289;-88
2022/03/10 00:53:45;;;;;;;19.67;10.57;;;;;;;8.80;33.39;100693.34;4908330;29;20755;-88
2022/03/10 00:56:10;;;;;;;18.23;9.32;;;;;;;8.93;33.52;100689.59;4909062;29;20519;-87
2022/03/10 00:58:35;;;;;;;18.38;8.88;;;;;;;8.96;33.67;100689.16;4892249;29;20036;-87
2022/03/10 01:01:00;;;;;;;22.33;10.13;;;;;;;8.75;33.43;100679.59;4908466;29;20044;-87
2022/03/10 01:03:26;;;;;;;20.30;9.57;;;;;;;8.95;33.41;100676.59;4908208;29;20289;-87
2022/03/10 01:05:51;;;;;;;21.63;9.60;;;;;;;8.81;33.38;100678.69;4908670;29;20294;-87
2022/03/10 01:08:17;;;;;;;19.48;10.35;;;;;;;8.71;33.25;100678.41;4909328;29;20343;-87
2022/03/10 01:10:42;;;;;;;19.75;11.25;;;;;;;8.97;34.03;100674.47;4895430;29;20052;-87
2022/03/10 01:13:13;;;;;;;23.65;10.40;;;;;;;8.96;33.18;100677.44;4890484;29;20024;-86
2022/03/10 01:15:38;;;;;;;29.77;11.35;;;;;;;8.92;33.43;100665.34;4901501;29;20167;-87
2022/03/10 01:18:03;;;;;;;17.60;9.75;;;;;;;8.96;33.31;100672.84;4908010;29;20033;-87
2022/03/10 01:20:29;;;;;;;18.93;11.17;;;;;;;8.84;33.34;100670.06;4907568;29;20527;-88
2022/03/10 01:22:54;;;;;;;20.70;9.05;;;;;;;8.98;33.47;100673.44;4909412;29;20278;-87
2022/03/10 01:25:20;;;;;;;25.17;10.73;;;;;;;8.92;33.24;100671.63;4891436;29;20032;-87
2022/03/10 01:27:46;;;;;;;25.80;9.18;;;;;;;8.80;33.17;100673.47;4908769;29;20028;-88
2022/03/10 01:30:12;;;;;;;21.67;10.48;;;;;;;8.86;33.46;100667.13;4907950;29;20139;-87
2022/03/10 01:32:38;;;;;;;18.17;10.80;;;;;;;8.87;33.45;100666.03;4904207;29;20044;-88
2022/03/10 01:35:05;;;;;;;35.42;10.70;;;;;;;8.96;32.82;100672.84;4908609;29;20043;-87
2022/03/10 01:37:32;;;;;;;19.10;10.60;;;;;;;8.98;33.39;100670.72;4908129;29;20366;-87
2022/03/10 01:39:58;;;;;;;17.08;9.82;;;;;;;8.93;33.47;100664.31;4908932;29;20408;-87
2022/03/10 01:42:23;;;;;;;22.65;10.93;;;;;;;9.01;33.58;100669.41;4890454;29;20036;-87
2022/03/10 01:44:53;;;;;;;21.47;9.60;;;;;;;8.93;33.58;100667.03;4908228;29;20539;-88
2022/03/10 01:47:19;;;;;;;21.65;9.73;;;;;;;8.54;33.74;100660.00;4907522;29;20279;-86
2022/03/10 01:49:45;;;;;;;16.83;8.88;;;;;;;8.55;33.87;100661.63;4907809;29;20443;-87
2022/03/10 01:52:10;;;;;;;17.35;9.70;;;;;;;8.41;33.84;100669.97;4907538;29;20032;-87
2022/03/10 01:54:36;;;;;;;17.13;8.40;;;;;;;8.45;33.99;100667.63;4907798;29;20223;-87
2022/03/10 01:57:03;;;;;;;23.88;10.73;;;;;;;8.39;33.84;100668.53;4909111;29;20559;-87
2022/03/10 01:59:28;;;;;;;20.80;8.93;;;;;;;8.26;33.67;100664.91;4908496;29;20028;-87
2022/03/10 02:01:53;;;;;;;22.08;11.32;;;;;;;8.43;33.99;100664.31;4891437;29;20288;-88
2022/03/10 02:04:19;;;;;;;20.87;9.30;;;;;;;8.22;33.43;100652.84;4908222;29;20551;-87
2022/03/10 02:06:44;;;;;;;16.27;9.75;;;;;;;8.44;33.35;100663.22;4902197;29;20307;-87
2022/03/10 02:11:53;;;;;;;18.13;9.05;;;;;;;8.67;33.40;100659.00;4913302;29;20046;-87
2022/03/10 02:17:21;;;;;;;21.80;9.27;;;;;;;8.43;33.56;100656.16;4909161;29;20406;-87
2022/03/10 02:19:51;;;;;;;16.33;7.43;;;;;;;8.34;33.84;100650.19;4907773;29;20056;-86
2022/03/10 02:22:17;;;;;;;16.30;7.82;;;;;;;8.25;33.74;100663.25;4891986;29;20043;-86
2022/03/10 02:24:44;;;;;;;15.90;7.38;;;;;;;8.38;33.71;100666.88;4907964;29;20052;-87
2022/03/10 02:27:13;;;;;;;14.60;8.93;;;;;;;8.40;33.51;100664.78;4908726;29;20726;-88
2022/03/10 02:29:42;;;;;;;14.25;8.48;;;;;;;8.43;33.42;100666.19;4891043;29;20071;-88
2022/03/10 02:32:07;;;;;;;15.50;8.13;;;;;;;8.48;33.61;100664.44;4908442;29;20028;-86
2022/03/10 02:34:32;;;;;;;16.20;8.57;;;;;;;7.89;33.87;100654.84;4891448;29;20050;-87
2022/03/10 02:36:57;;;;;;;18.43;10.20;;;;;;;8.03;33.96;100655.53;4908001;29;20746;-87
2022/03/10 02:39:23;;;;;;;21.93;10.77;;;;;;;8.17;33.71;100656.25;4908160;29;20263;-89
2022/03/10 02:41:49;;;;;;;19.40;9.00;;;;;;;8.33;33.53;100658.56;4907544;29;20497;-88
2022/03/10 02:44:14;;;;;;;17.30;8.55;;;;;;;8.46;35.14;100660.31;4908291;29;20806;-88
2022/03/10 02:46:39;;;;;;;13.90;8.70;;;;;;;8.43;34.29;100667.03;4907156;29;20050;-88
2022/03/10 02:49:04;;;;;;;18.23;10.60;;;;;;;8.36;34.54;100656.22;4908722;29;20275;-88
2022/03/10 02:51:30;;;;;;;16.58;8.65;;;;;;;8.17;34.32;100645.38;4907394;29;20299;-88
2022/03/10 02:53:55;;;;;;;22.25;8.38;;;;;;;8.19;33.63;100642.44;4914540;29;20064;-87
2022/03/10 02:56:20;;;;;;;17.03;8.57;;;;;;;7.94;33.87;100641.44;4920220;29;20059;-88
2022/03/10 02:58:46;;;;;;;17.85;7.85;;;;;;;8.02;34.04;100651.19;4907020;29;20315;-87
2022/03/10 03:01:11;;;;;;;12.30;7.20;;;;;;;8.15;33.17;100641.22;4907156;29;20530;-87
2022/03/10 03:03:36;;;;;;;18.05;8.10;;;;;;;8.29;33.22;100642.72;4908153;29;20785;-88
2022/03/10 03:06:01;;;;;;;17.98;8.40;;;;;;;8.26;33.50;100643.19;4907738;29;20074;-88
2022/03/10 03:08:27;;;;;;;21.10;8.65;;;;;;;8.18;33.64;100635.34;4907712;29;20341;-87
2022/03/10 03:10:52;;;;;;;16.67;8.37;;;;;;;7.85;33.62;100640.06;4907148;29;20035;-88
2022/03/10 03:13:17;;;;;;;13.20;6.72;;;;;;;8.00;33.58;100638.88;4906379;29;20770;-87
2022/03/10 03:15:42;;;;;;;15.00;8.80;;;;;;;8.13;33.41;100637.91;4907741;29;20032;-88
2022/03/10 03:18:08;;;;;;;20.90;9.00;;;;;;;7.86;33.62;100635.47;4906694;29;20294;-88
2022/03/10 03:20:33;;;;;;;13.87;7.93;;;;;;;8.14;33.25;100634.13;4906961;29;20055;-88
2022/03/10 03:22:58;;;;;;;17.73;8.30;;;;;;;8.26;32.97;100636.91;4907560;29;20663;-88
2022/03/10 03:25:23;;;;;;;17.13;8.53;;;;;;;8.03;33.47;100644.69;4906988;29;20558;-87
2022/03/10 03:27:49;;;;;;;22.63;8.63;;;;;;;8.16;33.53;100637.44;4906596;29;20274;-89
2022/03/10 03:30:15;;;;;;;20.98;10.57;;;;;;;8.19;33.36;100639.72;4906800;29;20301;-88
2022/03/10 03:32:40;;;;;;;18.38;8.27;;;;;;;8.15;33.14;100649.38;4907252;29;20650;-87
2022/03/10 03:35:06;;;;;;;16.60;8.17;;;;;;;8.02;33.46;100643.03;4907320;29;20024;-88
2022/03/10 03:37:31;;;;;;;14.88;8.70;;;;;;;8.27;33.15;100642.13;4906280;29;20558;-88
2022/03/10 03:39:56;;;;;;;14.90;7.63;;;;;;;8.41;33.03;100642.78;4906760;29;20107;-86
2022/03/10 03:42:22;;;;;;;13.93;7.55;;;;;;;8.38;32.70;100645.16;4906906;29;20032;-87
2022/03/10 03:44:47;;;;;;;14.05;8.52;;;;;;;8.39;33.65;100653.06;4906707;29;20035;-88
2022/03/10 03:47:13;;;;;;;15.07;6.72;;;;;;;8.38;34.48;100656.00;4906288;29;20549;-88
2022/03/10 03:49:38;;;;;;;20.40;8.97;;;;;;;8.26;33.32;100659.47;4907536;29;20044;-88
2022/03/10 03:52:04;;;;;;;16.90;7.27;;;;;;;8.31;33.46;100661.53;4907138;29;21263;-88
2022/03/10 03:54:30;;;;;;;15.32;7.72;;;;;;;8.33;34.23;100661.28;4918142;29;20274;-88
2022/03/10 03:56:55;;;;;;;16.00;8.27;;;;;;;8.28;34.83;100672.81;4917344;29;20034;-88
2022/03/10 03:59:20;;;;;;;18.80;9.00;;;;;;;8.24;34.14;100669.75;4906904;29;20050;-88
2022/03/10 04:01:46;;;;;;;13.77;7.93;;;;;;;8.25;33.61;100668.69;4906285;29;20273;-88
2022/03/10 04:04:11;;;;;;;16.58;9.80;;;;;;;8.25;33.46;100663.25;4906277;29;20337;-88
2022/03/10 04:06:36;;;;;;;12.77;7.65;;;;;;;8.26;34.31;100675.78;4906619;29;20043;-88
2022/03/10 04:09:02;;;;;;;13.63;7.80;;;;;;;8.20;35.03;100676.69;4906483;29;20032;-88
2022/03/10 04:11:28;;;;;;;13.25;7.38;;;;;;;8.11;35.85;100676.16;4906685;29;20040;-87
2022/03/10 04:13:54;;;;;;;14.48;7.55;;;;;;;7.93;35.98;100671.56;4906213;29;20624;-87
2022/03/10 04:16:33;;;;;;;16.95;6.88;;;;;;;7.62;38.74;100687.72;4906435;29;20035;-88
2022/03/10 04:18:58;;;;;;;15.82;7.32;;;;;;;6.87;38.54;100690.97;4906546;29;20056;-88
2022/03/10 04:21:24;;;;;;;16.67;7.87;;;;;;;6.63;39.83;100690.63;4906556;29;20050;-86
2022/03/10 04:23:49;;;;;;;21.73;9.27;;;;;;;6.60;40.04;100698.38;4906875;29;20278;-87
2022/03/10 04:26:15;;;;;;;15.20;7.40;;;;;;;6.68;39.77;100692.72;4906465;29;20040;-87
2022/03/10 04:28:40;;;;;;;17.93;7.97;;;;;;;6.47;40.05;100689.25;4905590;29;20239;-87
2022/03/10 04:31:05;;;;;;;12.90;7.38;;;;;;;6.60;40.57;100693.78;4906550;29;20291;-88
2022/03/10 04:33:30;;;;;;;16.17;8.17;;;;;;;6.77;38.78;100693.31;4905970;29;20572;-87
2022/03/10 04:35:56;;;;;;;15.32;8.77;;;;;;;6.99;38.45;100688.38;4906479;29;20671;-87
2022/03/10 04:38:22;;;;;;;17.70;9.63;;;;;;;7.03;38.94;100686.06;4905319;29;20103;-86
2022/03/10 04:40:47;;;;;;;17.25;8.70;;;;;;;6.75;39.49;100692.69;4906814;29;20115;-88
2022/03/10 04:43:12;;;;;;;17.55;7.55;;;;;;;6.64;39.43;100694.19;4888337;29;20498;-87
2022/03/10 04:45:38;;;;;;;11.25;7.30;;;;;;;6.30;40.75;100702.44;4906930;29;20537;-88
2022/03/10 04:48:06;;;;;;;21.58;8.15;;;;;;;5.94;40.84;100697.28;4905293;29;20032;-88
2022/03/10 04:53:22;;;;;;;12.43;6.97;;;;;;;6.47;40.42;100691.94;4909063;29;20559;-87
2022/03/10 04:55:47;;;;;;;16.92;7.82;;;;;;;6.05;40.37;100689.56;4918926;29;20067;-88
2022/03/10 04:58:13;;;;;;;14.98;7.78;;;;;;;6.34;40.71;100681.19;4905562;29;20115;-88
2022/03/10 05:00:38;;;;;;;17.02;9.00;;;;;;;6.46;40.90;100684.03;4905955;29;20473;-86
2022/03/10 05:03:03;;;;;;;21.40;7.35;;;;;;;6.81;39.43;100672.84;4905991;29;20083;-87
2022/03/10 05:05:29;;;;;;;22.05;9.77;;;;;;;6.95;38.14;100678.19;4906145;29;20032;-87
2022/03/10 05:07:54;;;;;;;13.65;6.68;;;;;;;7.02;37.97;100668.09;4905817;29;20503;-87
2022/03/10 05:10:19;;;;;;;18.87;8.40;;;;;;;6.97;37.10;100671.50;4906144;29;20024;-87
2022/03/10 05:12:46;;;;;;;20.45;8.68;;;;;;;7.21;36.92;100674.47;4905606;29;20275;-88
2022/03/10 05:15:11;;;;;;;14.52;7.53;;;;;;;7.22;37.05;100678.00;4906502;29;20116;-88
2022/03/10 05:17:36;;;;;;;10.98;5.93;;;;;;;7.30;36.70;100675.00;4906083;29;20028;-87
2022/03/10 05:20:02;;;;;;;13.43;7.50;;;;;;;7.32;38.75;100686.47;4905831;29;20035;-87
2022/03/10 05:22:41;;;;;;;17.75;8.65;;;;;;;7.32;36.51;100681.03;4906752;29;20349;-87
2022/03/10 05:25:06;;;;;;;15.43;7.05;;;;;;;7.30;37.16;100677.72;4909452;29;20039;-88
2022/03/10 05:27:32;;;;;;;15.40;6.45;;;;;;;7.38;36.70;100673.94;4892514;29;20028;-88
2022/03/10 05:29:57;;;;;;;15.07;7.68;;;;;;;7.42;37.20;100674.31;4909281;29;20024;-88
2022/03/10 05:32:22;;;;;;;12.07;7.27;;;;;;;7.44;36.60;100685.78;4910309;29;20043;-88
2022/03/10 05:34:47;;;;;;;17.60;7.53;;;;;;;7.39;36.29;100674.72;4908709;29;20271;-87
2022/03/10 05:37:13;;;;;;;13.47;6.70;;;;;;;7.42;35.88;100677.03;4910105;29;20952;-88
2022/03/10 05:39:38;;;;;;;12.30;6.10;;;;;;;7.34;36.00;100675.41;4908633;29;20275;-87
2022/03/10 05:42:03;;;;;;;17.90;7.37;;;;;;;7.47;35.51;100672.59;4909365;29;20847;-88
2022/03/10 05:44:29;;;;;;;12.02;6.32;;;;;;;7.33;35.90;100671.88;4908792;29;20807;-88
2022/03/10 05:46:54;;;;;;;16.10;7.87;;;;;;;7.42;36.20;100677.88;4909194;29;20047;-87
2022/03/10 05:49:19;;;;;;;12.95;6.72;;;;;;;7.56;35.92;100677.75;4909742;29;20292;-88
2022/03/10 05:51:45;;;;;;;13.68;7.05;;;;;;;7.52;35.46;100681.94;4908403;29;20040;-88
2022/03/10 05:54:10;;;;;;;17.38;8.55;;;;;;;7.57;35.66;100680.22;4918070;29;20040;-88
2022/03/10 05:56:35;;;;;;;16.50;7.68;;;;;;;7.45;35.38;100687.41;4918005;29;20036;-86
2022/03/10 05:59:01;;;;;;;15.27;7.73;;;;;;;7.62;36.25;100686.88;4909279;29;20058;-88
2022/03/10 06:01:26;;;;;;;18.17;8.77;;;;;;;7.61;36.73;100698.78;4908245;29;20328;-87
2022/03/10 06:03:51;;;;;;;18.58;7.85;;;;;;;7.40;38.50;100695.41;4909026;29;20270;-88
2022/03/10 06:06:17;;;;;;;19.55;9.00;;;;;;;7.31;36.73;100695.66;4908503;29;20062;-87
2022/03/10 06:08:43;;;;;;;19.23;8.73;;;;;;;7.40;37.04;100701.66;4908437;29;20056;-86
2022/03/10 06:11:21;;;;;;;20.17;9.30;;;;;;;7.26;38.33;100710.94;4904833;29;20278;-87
2022/03/10 06:13:47;;;;;;;15.60;7.73;;;;;;;7.11;38.69;100721.06;4889628;29;20043;-87
2022/03/10 06:16:12;;;;;;;16.38;8.13;;;;;;;7.03;38.67;100713.19;4901989;29;20271;-88
2022/03/10 06:18:37;;;;;;;14.20;8.52;;;;;;;7.21;39.14;100714.31;4908576;29;20050;-87
2022/03/10 06:21:02;;;;;;;17.25;7.00;;;;;;;7.13;38.42;100712.69;4908306;29;20040;-88
2022/03/10 06:23:28;;;;;;;13.15;7.25;;;;;;;7.22;39.18;100714.09;4908685;29;20032;-87
2022/03/10 06:25:53;;;;;;;18.90;8.48;;;;;;;7.14;39.32;100716.25;4908632;29;20107;-87
2022/03/10 06:28:18;;;;;;;14.93;7.95;;;;;;;6.95;39.48;100724.28;4908531;29;20032;-87
2022/03/10 06:30:44;;;;;;;17.90;8.87;;;;;;;7.07;39.93;100730.69;4907864;29;20051;-87
2022/03/10 06:33:09;;;;;;;16.02;7.95;;;;;;;6.84;40.03;100736.63;4891773;29;20302;-87
2022/03/10 06:35:34;;;;;;;14.93;7.93;;;;;;;6.98;41.13;100726.53;4906376;29;20396;-87
2022/03/10 06:38:00;;;;;;;18.02;8.38;;;;;;;6.97;40.99;100735.72;4908338;29;20095;-87
2022/03/10 06:40:25;;;;;;;14.95;8.63;;;;;;;7.06;39.82;100734.41;4908203;29;20418;-87
2022/03/10 06:42:50;;;;;;;16.52;9.30;;;;;;;6.93;41.56;100740.75;4907810;29;20034;-87
2022/03/10 06:45:15;;;;;;;17.93;8.73;;;;;;;6.72;40.95;100747.31;4909121;29;20032;-87
2022/03/10 06:47:41;;;;;;;19.90;10.60;;;;;;;6.92;41.09;100746.38;4907606;29;20289;-87
2022/03/10 06:50:06;;;;;;;17.52;10.00;;;;;;;6.72;42.50;100747.31;4908336;29;20444;-88
2022/03/10 06:55:24;;;;;;;17.55;9.93;;;;;;;6.95;40.27;100745.97;4916272;29;20316;-88
2022/03/10 06:57:54;;;;;;;20.13;10.85;;;;;;;6.98;39.80;100748.22;4907465;29;20492;-88
2022/03/10 07:00:20;;;;;;;24.92;9.73;;;;;;;7.08;40.23;100742.34;4890899;29;20039;-88
2022/03/10 07:02:46;;;;;;;19.33;8.63;;;;;;;7.23;38.85;100739.34;4907855;29;20036;-87
2022/03/10 07:05:11;;;;;;;22.13;8.68;;;;;;;7.27;39.16;100740.56;4907291;29;20051;-88
2022/03/10 07:07:36;;;;;;;16.92;8.80;;;;;;;7.25;39.20;100737.22;4890475;29;20036;-88
2022/03/10 07:10:03;;;;;;;17.75;10.32;;;;;;;7.40;38.57;100734.22;4907572;29;20024;-88
2022/03/10 07:12:28;;;;;;;15.35;8.80;;;;;;;7.34;37.85;100746.75;4907932;29;20052;-87
2022/03/10 07:14:54;;;;;;;19.90;10.35;;;;;;;7.27;37.55;100753.28;4906998;29;20032;-87
2022/03/10 07:17:20;;;;;;;27.35;11.00;;;;;;;7.30;38.05;100750.97;4908288;29;20451;-87
2022/03/10 07:19:48;;;;;;;16.17;7.30;;;;;;;7.41;38.61;100756.75;4907251;29;20632;-87
2022/03/10 07:22:19;;;;;;;20.50;9.20;;;;;;;7.42;40.42;100753.84;4907504;29;20024;-87
2022/03/10 07:24:45;;;;;;;22.13;10.32;;;;;;;7.60;41.20;100760.38;4907175;29;20127;-88
2022/03/10 07:27:11;;;;;;;20.02;10.20;;;;;;;7.50;41.56;100766.28;4907574;29;20147;-87
2022/03/10 07:29:36;;;;;;;16.40;9.23;;;;;;;7.46;42.31;100770.50;4906948;29;20024;-88
2022/03/10 07:32:01;;;;;;;17.30;8.40;;;;;;;7.30;39.71;100769.94;4907396;29;20032;-87
2022/03/10 07:34:27;;;;;;;15.75;8.32;;;;;;;7.39;38.48;100766.97;4907566;29;20378;-87
2022/03/10 07:36:53;;;;;;;16.55;8.40;;;;;;;7.52;38.27;100757.94;4907574;29;20096;-86
2022/03/10 07:39:18;;;;;;;19.27;10.35;;;;;;;7.45;37.93;100763.41;4907918;29;20039;-87
2022/03/10 07:41:43;;;;;;;18.20;8.90;;;;;;;7.58;38.29;100755.19;4907351;29;20040;-88
2022/03/10 07:44:09;;;;;;;17.63;9.98;;;;;;;7.54;37.27;100750.41;4906491;29;20724;-87
2022/03/10 07:46:34;;;;;;;20.43;11.43;;;;;;;7.77;36.60;100757.13;4906744;29;20040;-88
2022/03/10 07:49:00;;;;;;;16.67;8.63;;;;;;;7.78;36.78;100751.47;4889222;29;20378;-87
2022/03/10 07:51:25;;;;;;;15.80;9.02;;;;;;;7.77;37.25;100757.94;4907687;29;20032;-87
2022/03/10 07:53:50;;;;;;;17.90;9.05;;;;;;;7.94;36.45;100744.66;4908818;29;20024;-87
2022/03/10 07:56:15;;;;;;;20.30;9.75;;;;;;;8.05;36.68;100744.97;4907173;29;20036;-88
2022/03/10 07:58:41;;;;;;;19.23;10.02;;;;;;;7.90;36.87;100750.72;4889704;29;20024;-88
2022/03/10 08:01:19;;;;;;;20.37;9.43;;;;;;;7.97;36.48;100748.81;4907088;29;20471;-87
2022/03/10 08:03:47;;;;;;;28.15;12.20;;;;;;;8.00;36.92;100753.78;4906943;29;20275;-87
2022/03/10 08:06:13;;;;;;;20.77;11.10;;;;;;;8.12;36.82;100755.75;4906703;29;20091;-87
2022/03/10 08:08:38;;;;;;;25.15;10.35;;;;;;;8.22;36.30;100753.34;4906189;29;20056;-87
2022/03/10 08:11:06;;;;;;;20.00;10.25;;;;;;;8.29;36.80;100751.41;4907325;29;20070;-87
2022/03/10 08:13:32;;;;;;;19.35;9.27;;;;;;;8.36;36.45;100748.59;4905983;29;20060;-88
2022/03/10 08:15:59;;;;;;;25.33;11.57;;;;;;;8.40;36.28;100749.00;4907459;29;20135;-87
2022/03/10 08:18:24;;;;;;;17.92;10.10;;;;;;;8.52;36.29;100743.66;4905921;29;20412;-87
2022/03/10 08:20:49;;;;;;;23.52;10.85;;;;;;;8.67;35.95;100734.28;4907109;29;20149;-88
2022/03/10 08:23:17;;;;;;;20.98;11.60;;;;;;;8.73;35.77;100746.97;4906376;29;20040;-87
2022/03/10 08:25:42;;;;;;;23.35;13.38;;;;;;;8.90;35.71;100736.31;4907261;29;20042;-88
2022/03/10 08:28:08;;;;;;;16.60;10.18;;;;;;;8.96;35.63;100738.09;4906342;29;20107;-88
2022/03/10 08:30:34;;;;;;;42.22;13.48;;;;;;;8.75;35.84;100737.53;4906519;29;20040;-88
2022/03/10 08:33:00;;;;;;;22.73;11.48;;;;;;;8.82;36.17;100737.47;4905895;29;20076;-88
2022/03/10 08:35:26;;;;;;;29.83;11.88;;;;;;;8.97;35.82;100733.50;4906529;29;20520;-87
2022/03/10 08:37:52;;;;;;;27.23;12.73;;;;;;;9.05;36.28;100727.72;4906704;29;20056;-88
2022/03/10 08:40:19;;;;;;;22.83;11.23;;;;;;;9.03;35.88;100729.03;4906577;29;20091;-87
2022/03/10 08:42:46;;;;;;;25.20;10.90;;;;;;;9.17;35.70;100724.22;4905855;29;20047;-88
2022/03/10 08:45:12;;;;;;;25.73;13.32;;;;;;;9.10;36.14;100727.88;4906783;29;20064;-88
2022/03/10 08:47:37;;;;;;;20.13;11.75;;;;;;;9.18;36.05;100725.88;4906583;29;20252;-88
2022/03/10 08:50:03;;;;;;;23.95;12.27;;;;;;;9.20;35.68;100721.88;4906629;29;20193;-87
2022/03/10 08:52:28;;;;;;;25.55;13.05;;;;;;;9.25;35.92;100728.50;4905936;29;20068;-88
2022/03/10 08:54:54;;;;;;;25.73;12.70;;;;;;;9.45;35.91;100722.75;4904122;29;20046;-88
2022/03/10 08:57:19;;;;;;;29.40;14.82;;;;;;;9.31;36.22;100712.09;4912126;29;20453;-88
2022/03/10 08:59:45;;;;;;;29.30;11.57;;;;;;;9.49;35.98;100701.34;4910418;29;20043;-88
2022/03/10 09:02:12;;;;;;;24.00;12.23;;;;;;;9.78;35.44;100710.47;4909742;29;20349;-88
2022/03/10 09:04:37;;;;;;;29.90;16.00;;;;;;;9.78;35.35;100717.84;4909978;29;20480;-88
2022/03/10 09:07:03;;;;;;;26.15;12.90;;;;;;;9.67;35.01;100720.31;4909742;29;20040;-88
2022/03/10 09:09:28;;;;;;;26.77;13.30;;;;;;;9.84;35.08;100730.50;4909859;29;20425;-88
2022/03/10 09:11:54;;;;;;;23.50;12.75;;;;;;;9.79;35.88;100730.38;4892360;29;20491;-88
2022/03/10 09:14:19;;;;;;;27.50;11.70;;;;;;;9.79;35.44;100722.19;4909219;29;20172;-88
2022/03/10 09:16:45;;;;;;;22.90;11.70;;;;;;;9.83;35.45;100723.38;4910344;29;20087;-88
2022/03/10 09:19:11;;;;;;;21.83;12.35;;;;;;;9.80;35.63;100719.22;4909305;29;20052;-88
2022/03/10 09:21:36;;;;;;;26.00;12.45;;;;;;;9.76;35.71;100711.78;4910181;29;20026;-88
2022/03/10 09:24:01;;;;;;;24.27;12.10;;;;;;;10.00;35.31;100700.88;4910349;29;20416;-88
2022/03/10 09:26:27;;;;;;;26.33;11.95;;;;;;;10.01;35.49;100707.97;4909497;29;20039;-87
2022/03/10 09:28:52;;;;;;;26.77;13.20;;;;;;;10.06;35.52;100708.13;4909909;29;20028;-87
2022/03/10 09:31:18;;;;;;;30.23;13.65;;;;;;;10.16;34.81;100710.22;4909565;29;20039;-87
2022/03/10 09:36:46;;;;;;;23.23;12.68;;;;;;;10.14;35.29;100705.03;4901049;29;20042;-87
2022/03/10 09:39:11;;;;;;;27.03;11.80;;;;;;;10.29;35.36;100698.25;4910082;29;20028;-87
2022/03/10 09:41:39;;;;;;;26.63;14.17;;;;;;;10.29;34.82;100701.00;4908906;29;20623;-88
2022/03/10 09:44:17;;;;;;;32.22;11.73;;;;;;;10.38;34.54;100706.88;4909217;29;20267;-88
2022/03/10 09:46:43;;;;;;;26.27;13.13;;;;;;;10.38;34.37;100701.41;4909477;29;20198;-88
2022/03/10 09:49:09;;;;;;;24.60;11.90;;;;;;;10.51;33.80;100705.81;4909395;29;20032;-88
2022/03/10 09:51:35;;;;;;;30.75;15.68;;;;;;;10.73;34.30;100703.25;4909452;29;20391;-87
2022/03/10 09:54:00;;;;;;;22.95;11.82;;;;;;;10.81;33.80;100693.84;4916554;29;20258;-88
2022/03/10 09:56:26;;;;;;;30.15;13.57;;;;;;;10.74;33.69;100698.63;4915971;29;20380;-88
2022/03/10 09:58:51;;;;;;;27.55;14.60;;;;;;;10.95;33.88;100704.47;4909173;29;20055;-87
2022/03/10 10:01:16;;;;;;;25.00;13.85;;;;;;;11.07;34.13;100694.31;4908906;29;20448;-89
2022/03/10 10:03:42;;;;;;;29.00;13.23;;;;;;;11.07;33.11;100677.13;4909715;29;20040;-88
2022/03/10 10:06:07;;;;;;;24.63;12.70;;;;;;;11.06;32.96;100679.03;4908368;29;20043;-87
2022/03/10 10:08:34;;;;;;;27.23;13.15;;;;;;;11.35;33.00;100672.69;4909543;29;20258;-88
2022/03/10 10:11:00;;;;;;;25.48;13.55;;;;;;;11.33;32.15;100674.81;4908278;29;20036;-88
2022/03/10 10:16:17;;;;;;;28.67;13.60;;;;;;;11.37;32.64;100677.91;4898251;29;20175;-89
2022/03/10 10:18:43;;;;;;;31.00;13.80;;;;;;;11.24;31.70;100679.03;4908654;29;20443;-89
2022/03/10 10:21:12;;;;;;;31.38;15.65;;;;;;;11.42;30.92;100677.97;4908738;29;20374;-88
2022/03/10 10:23:38;;;;;;;25.58;11.95;;;;;;;11.54;31.58;100673.28;4908362;29;20423;-89
2022/03/10 10:26:09;;;;;;;35.15;14.32;;;;;;;11.82;31.57;100667.94;4908223;29;20036;-90
2022/03/10 10:28:39;;;;;;;26.55;12.68;;;;;;;11.67;32.17;100663.09;4908571;29;20039;-90
2022/03/10 10:31:07;;;;;;;27.55;14.23;;;;;;;11.77;31.52;100670.59;4907900;29;20035;-89
2022/03/10 10:33:34;;;;;;;34.05;16.08;;;;;;;11.61;31.45;100667.66;4908684;29;20422;-88
2022/03/10 10:36:24;;;;;;;28.92;14.68;;;;;;;11.70;30.76;100665.31;4908173;29;20058;-89
2022/03/10 10:38:52;;;;;;;32.45;14.57;;;;;;;11.74;30.37;100657.44;4891176;29;20063;-89
2022/03/10 10:41:24;;;;;;;37.05;15.57;;;;;;;11.78;30.35;100656.69;4908402;29;20535;-89
2022/03/10 10:43:58;;;;;;;24.15;11.75;;;;;;;12.02;30.31;100667.41;4907296;29;20111;-89
2022/03/10 10:46:32;;;;;;;24.80;11.63;;;;;;;12.17;30.24;100655.03;4908823;29;20066;-89
2022/03/10 10:49:03;;;;;;;26.25;12.98;;;;;;;12.15;30.45;100659.94;4891133;29;20546;-87
2022/03/10 10:51:35;;;;;;;29.05;13.13;;;;;;;12.18;29.69;100656.72;4908766;29;20428;-89
2022/03/10 10:54:10;;;;;;;24.40;10.88;;;;;;;12.30;30.07;100650.28;4908172;29;20039;-89
2022/03/10 10:56:45;;;;;;;19.73;11.48;;;;;;;12.35;29.59;100642.13;4908039;29;20040;-87
2022/03/10 10:59:26;;;;;;;21.40;12.35;;;;;;;12.45;30.11;100650.47;4908122;29;20044;-88
2022/03/10 11:02:03;;;;;;;23.52;12.73;;;;;;;12.47;30.54;100640.09;4907963;29;20028;-88
2022/03/10 11:04:28;;;;;;;19.80;9.68;;;;;;;12.57;30.69;100646.78;4907687;29;20118;-90
2022/03/10 11:06:54;;;;;;;24.55;11.55;;;;;;;12.61;30.42;100640.50;4907859;29;20034;-89
2022/03/10 11:09:19;;;;;;;25.70;11.45;;;;;;;12.70;29.15;100640.88;4890791;29;20028;-90
2022/03/10 11:11:45;;;;;;;24.58;12.65;;;;;;;12.81;28.33;100639.06;4907836;29;20056;-89
2022/03/10 11:14:10;;;;;;;17.83;9.35;;;;;;;12.77;28.65;100632.47;4907565;29;20024;-89
2022/03/10 11:16:36;;;;;;;19.83;11.00;;;;;;;12.91;29.29;100635.63;4908762;29;20036;-88
2022/03/10 11:19:01;;;;;;;23.35;12.10;;;;;;;12.96;28.78;100635.66;4907466;29;20032;-89
2022/03/10 11:21:38;;;;;;;25.98;12.32;;;;;;;12.88;28.57;100632.56;4889817;29;20571;-89
2022/03/10 11:24:17;;;;;;;18.15;9.25;;;;;;;12.92;28.31;100623.59;4906624;29;20039;-88
2022/03/10 11:26:49;;;;;;;20.83;11.85;;;;;;;13.03;28.07;100621.78;4907923;29;20460;-89
2022/03/10 11:29:23;;;;;;;21.10;11.25;;;;;;;13.12;28.27;100621.31;4907586;29;20020;-91
2022/03/10 11:31:48;;;;;;;;;;;;;;;12.98;27.70;100624.44;4907595;29;20054;-89